Terminal Aerodrome Forecast
Issued by NWS

Home | Current Version | Previous Version | Text Only | Print | Product List | Glossary On
Versions: 1 2 3 4 5 6 7 8 9 10 11 12 13 14
595
FTUS42 KMLB 291727
TAFISM
TAF
KISM 291727Z 2918/3018 24004KT P6SM SCT050
     FM292300 12007KT P6SM SCT060
     FM300200 22003KT P6SM FEW060 SCT250
     FM301400 24004KT P6SM SCT025=

USA.gov is the U.S. government's official web portal to all federal, state and local government web resources and services.